Aérodrome :
LOGIN :

S'inscrire | Disclaimer

   EN    FR    IT 

 










Légende :    VFR   VFR Marginal   IFR   IFR Intensif   IFR Très Intensif
Visi : 
Plafond : 
>= 8 km
>= 3000ft
5 à 8 km
1000 à 3000 ft
1500m à 5 km
500 à 1000 ft
800 à 1500m
200 à 500 ft
< 800m
< 200 ft
Symboles :   Orages  Brouillard  Fortes neiges  Fortes précipitations  Vent > 20 kt
SIGMETs :   Divers  Orages  Givrage  Turbulence  Onde Orograph.  Cendres Volcan.






- Altitude de l'aérodrome : 468 ft
- Code IATA : GRO


LEGE - Girona Costa Brava

DERNIER METAR :
  • 190200Z 28002KT 9999 FEW020 SCT035 16/15 Q1015

METARs EXPIRÉS :
  • 190130Z 00000KT 9999 FEW020 SCT035 17/16 Q1015
  • 190100Z VRB01KT 9999 FEW020 BKN035 17/16 Q1015
  • 190030Z VRB01KT 9999 FEW025 SCT070 17/16 Q1015
  • 190000Z 00000KT 9999 FEW025 SCT050 17/16 Q1015
  • 182330Z 03003KT 9999 SCT025 BKN050 17/16 Q1015

TAF TAF LEGE
Valide du 19 à 00h jusqu'au 20 à 00h UTC


182300Z 1900/1924 VRB04KT 9999 SCT020 TX26/1912Z TN16/1906Z
PROB30
TEMPO 1900/1906 3000 BR BKN010
BECMG 1910/1913 18010KT



MET'MAP, la Météo Aéronautique d'un coup d'oeil ! - Copyright ORBIFLY Décembre 2007 - Disclaimer

ORBIFLY MET'MAP TEAM :

Programmation & Développement : Alexandra Zaïnal
Sur une idée originale de : Baudouin d'Aumeries
Assistance à la programmation : Marc-Olivier Méhu
Soutien technique & logistique : Manuel Goepfert

Contact : metmap@orbifly.com




SOURCES & CREDITS :

   NOAA